Time;durP1;ratioP1;P1;durP2;ratioP2;P2;SDS_P1;SDS_P2;PMS_P1;PMS_P2;Temp;Humidity;BMP_temperature;BMP_pressure;BME280_temperature;BME280_humidity;BME280_pressure;Samples;Min_cycle;Max_cycle;Signal;HPM_P1;HPM_P2
2022/03/22 00:01:42;;;;;;;;;22.33;21.33;;;;;15.95;50.10;101983.50;6255652;22;45714;-82
2022/03/22 00:04:07;;;;;;;;;27.00;23.00;;;;;15.96;50.26;101989.81;6254192;22;47952;-82
2022/03/22 00:06:33;;;;;;;;;22.00;22.00;;;;;15.94;50.02;101986.22;6254190;22;45403;-81
2022/03/22 00:08:59;;;;;;;;;24.00;24.00;;;;;15.94;50.28;102000.50;6254904;22;45394;-82
2022/03/22 00:11:24;;;;;;;;;25.33;23.00;;;;;15.84;50.23;101986.97;6255476;22;45426;-82
2022/03/22 00:13:49;;;;;;;;;23.33;22.67;;;;;15.89;49.96;101993.28;6254451;22;46224;-82
2022/03/22 00:16:15;;;;;;;;;22.67;21.00;;;;;15.91;50.19;101994.19;6281759;22;45364;-81
2022/03/22 00:18:42;;;;;;;;;30.67;22.33;;;;;15.96;50.24;101998.75;6280553;22;45432;-82
2022/03/22 00:21:07;;;;;;;;;26.67;23.33;;;;;15.83;50.34;102001.25;6279690;22;45349;-82
2022/03/22 00:23:41;;;;;;;;;25.67;23.67;;;;;15.83;50.27;101990.53;6279630;22;45381;-82
2022/03/22 00:26:06;;;;;;;;;23.00;23.00;;;;;15.79;50.49;102003.91;6252958;22;45781;-82
2022/03/22 00:28:31;;;;;;;;;23.00;21.67;;;;;15.73;50.68;101987.72;6281095;22;45686;-82
2022/03/22 00:30:58;;;;;;;;;29.33;23.67;;;;;15.84;50.29;101997.72;6279164;22;45428;-82
2022/03/22 00:33:23;;;;;;;;;24.00;21.67;;;;;15.69;50.50;101993.88;6253423;22;47149;-83
2022/03/22 00:35:49;;;;;;;;;19.67;18.33;;;;;15.67;50.43;101995.66;6252465;22;45372;-83
2022/03/22 00:38:20;;;;;;;;;22.33;20.00;;;;;15.68;50.70;101993.91;6280462;22;45395;-83
2022/03/22 00:40:46;;;;;;;;;24.67;23.00;;;;;15.66;50.62;101999.22;6252267;22;45391;-83
2022/03/22 00:43:12;;;;;;;;;20.33;18.67;;;;;15.62;50.88;101997.38;6251974;22;47186;-82
2022/03/22 00:45:38;;;;;;;;;28.33;23.00;;;;;15.59;50.81;102002.69;6280858;22;45483;-82
2022/03/22 00:48:06;;;;;;;;;23.00;21.00;;;;;15.60;50.71;101993.78;6253540;22;45394;-82
2022/03/22 00:50:35;;;;;;;;;21.67;19.00;;;;;15.66;50.65;101996.53;6282068;22;45492;-82
2022/03/22 00:53:01;;;;;;;;;24.00;22.33;;;;;15.49;50.62;101990.03;6254153;22;46993;-82
2022/03/22 00:55:28;;;;;;;;;24.00;22.00;;;;;15.50;50.72;101997.22;6281175;22;45448;-82
2022/03/22 00:57:55;;;;;;;;;20.00;20.00;;;;;15.57;50.76;102005.38;6281315;22;45396;-82
2022/03/22 01:00:24;;;;;;;;;24.00;19.33;;;;;15.51;50.69;101999.00;6281601;22;45677;-83
2022/03/22 01:02:51;;;;;;;;;24.33;21.00;;;;;15.46;50.83;102000.75;6251861;22;47491;-82
2022/03/22 01:05:19;;;;;;;;;21.33;20.00;;;;;15.45;50.39;101997.16;6282218;22;45347;-82
2022/03/22 01:08:07;;;;;;;;;22.67;22.33;;;;;15.52;50.62;102007.09;6253799;22;45807;-82
2022/03/22 01:10:36;;;;;;;;;20.67;19.67;;;;;15.45;50.69;102004.28;6254364;22;45387;-82
2022/03/22 01:13:03;;;;;;;;;21.00;16.00;;;;;15.30;50.40;101995.16;6254152;22;46569;-82
2022/03/22 01:18:50;;;;;;;;;29.33;20.67;;;;;15.24;50.56;102000.41;6281520;22;45665;-82
2022/03/22 01:21:15;;;;;;;;;17.67;15.67;;;;;15.19;50.49;101991.44;6280689;22;45485;-82
2022/03/22 01:23:41;;;;;;;;;23.00;19.67;;;;;15.14;50.52;101985.97;6248904;22;46604;-82
2022/03/22 01:26:07;;;;;;;;;21.67;20.33;;;;;15.17;50.43;102001.22;6251906;22;45842;-83
2022/03/22 01:28:32;;;;;;;;;19.00;19.00;;;;;15.15;50.68;101995.84;6281177;22;45409;-83
2022/03/22 01:30:57;;;;;;;;;23.67;19.33;;;;;15.11;50.71;101993.09;6281984;22;45447;-83
2022/03/22 01:33:23;;;;;;;;;26.67;24.33;;;;;15.12;50.78;102001.13;6280444;22;45364;-83
2022/03/22 01:35:49;;;;;;;;;19.33;19.33;;;;;15.13;50.96;101994.00;6254387;22;45447;-82
2022/03/22 01:38:15;;;;;;;;;23.00;21.00;;;;;15.03;50.97;101995.66;6281654;22;45424;-83
2022/03/22 01:40:40;;;;;;;;;26.33;22.00;;;;;14.99;50.81;101989.31;6283008;22;45321;-83
2022/03/22 01:43:06;;;;;;;;;18.00;18.00;;;;;15.02;50.63;102000.97;6254234;22;46716;-83
2022/03/22 01:45:32;;;;;;;;;20.67;20.00;;;;;14.97;50.43;101987.50;6281256;22;45306;-83
2022/03/22 01:48:03;;;;;;;;;21.33;20.33;;;;;15.04;49.87;101989.38;6281962;22;45390;-83
2022/03/22 01:50:29;;;;;;;;;27.33;24.00;;;;;14.92;49.96;101987.41;6283816;22;45333;-83
2022/03/22 01:52:57;;;;;;;;;18.67;18.67;;;;;14.97;49.91;101992.88;6256307;22;47904;-83
2022/03/22 01:55:23;;;;;;;;;19.33;19.00;;;;;14.87;49.98;101989.13;6284507;22;45337;-82
2022/03/22 01:57:49;;;;;;;;;14.33;14.33;;;;;14.76;49.93;101969.28;6257610;22;45390;-82
2022/03/22 02:00:21;;;;;;;;;22.67;19.33;;;;;14.96;49.97;101983.91;6257834;22;45421;-82
2022/03/22 02:05:56;;;;;;;;;22.33;22.33;;;;;14.83;49.87;101979.25;6284895;22;45490;-83
2022/03/22 02:08:32;;;;;;;;;23.33;22.67;;;;;14.87;49.33;101977.53;6283448;22;45789;-82
2022/03/22 02:10:59;;;;;;;;;19.33;19.33;;;;;14.73;49.58;101971.94;6255675;22;45520;-83
2022/03/22 02:13:25;;;;;;;;;20.67;20.00;;;;;14.71;49.79;101977.25;6256428;22;47023;-83
2022/03/22 02:15:57;;;;;;;;;20.33;19.33;;;;;14.82;49.44;101979.22;6284637;22;45406;-83
2022/03/22 02:18:24;;;;;;;;;25.33;22.33;;;;;14.71;49.40;101976.38;6254231;22;45443;-83
2022/03/22 02:20:50;;;;;;;;;19.33;17.67;;;;;14.65;49.46;101971.81;6254586;22;45647;-83
2022/03/22 02:23:47;;;;;;;;;24.67;19.33;;;;;14.77;49.02;101965.75;6280337;22;46094;-83
2022/03/22 02:26:13;;;;;;;;;21.00;19.67;;;;;14.64;48.90;101971.78;6223066;22;45821;-83
2022/03/22 02:28:38;;;;;;;;;23.67;22.67;;;;;14.64;49.21;101977.13;6250865;22;45343;-82
2022/03/22 02:31:04;;;;;;;;;20.33;19.67;;;;;14.67;48.94;101979.88;6224608;22;45351;-83
2022/03/22 02:33:29;;;;;;;;;10.00;9.33;;;;;14.65;48.99;101982.50;6251702;22;45615;-83
2022/03/22 02:35:55;;;;;;;;;25.33;21.33;;;;;14.64;48.79;101985.16;6223000;22;45431;-83
2022/03/22 02:38:20;;;;;;;;;25.67;24.00;;;;;14.58;48.61;101976.16;6226546;22;45339;-83
2022/03/22 02:40:46;;;;;;;;;21.67;20.00;;;;;14.63;48.88;101978.00;6253362;22;45278;-83
2022/03/22 02:43:12;;;;;;;;;20.00;20.00;;;;;14.58;48.71;101992.22;6252829;22;45642;-83
2022/03/22 02:45:37;;;;;;;;;18.67;18.00;;;;;14.46;48.62;101965.22;6252756;22;45405;-83
2022/03/22 02:48:42;;;;;;;;;23.00;20.00;;;;;14.72;48.25;101988.88;6223725;22;45456;-83
2022/03/22 02:51:08;;;;;;;;;19.67;19.33;;;;;14.52;48.56;101989.41;6251478;22;45568;-83
2022/03/22 02:53:34;;;;;;;;;17.67;16.33;;;;;14.45;48.41;101978.56;6252181;22;45431;-83
2022/03/22 02:55:59;;;;;;;;;21.33;19.33;;;;;14.44;48.40;101977.66;6250426;22;45488;-83
2022/03/22 02:58:25;;;;;;;;;21.00;17.00;;;;;14.42;48.14;101979.38;6247525;22;45712;-82
2022/03/22 03:00:50;;;;;;;;;22.00;21.67;;;;;14.39;48.28;101980.22;6222246;22;45389;-82
2022/03/22 03:03:20;;;;;;;;;19.67;19.67;;;;;14.30;48.29;101976.47;6250946;22;45392;-81
2022/03/22 03:05:46;;;;;;;;;18.33;17.67;;;;;14.36;48.08;101990.91;6251109;22;45345;-83
2022/03/22 03:08:11;;;;;;;;;21.33;18.67;;;;;14.29;48.40;101978.25;6248863;22;45318;-83
2022/03/22 03:10:36;;;;;;;;;23.67;20.67;;;;;14.29;48.69;101982.72;6247416;22;45352;-82
2022/03/22 03:13:04;;;;;;;;;20.67;20.67;;;;;14.34;48.48;101984.63;6246638;22;46816;-82
2022/03/22 03:15:30;;;;;;;;;20.33;20.33;;;;;14.23;48.87;101991.53;6247494;22;45362;-83
2022/03/22 03:17:57;;;;;;;;;27.67;23.67;;;;;14.26;48.51;101998.69;6222078;22;45356;-82
2022/03/22 03:20:23;;;;;;;;;22.33;19.67;;;;;14.16;48.98;101995.88;6249215;22;45559;-82
2022/03/22 03:22:48;;;;;;;;;18.67;18.67;;;;;14.18;48.24;101998.59;6220473;22;47539;-82
2022/03/22 03:25:14;;;;;;;;;22.67;22.33;;;;;14.15;48.56;101994.06;6271587;22;45300;-82
2022/03/22 03:27:40;;;;;;;;;22.33;20.67;;;;;14.14;48.52;102011.00;6278928;22;45439;-82
2022/03/22 03:30:07;;;;;;;;;23.33;22.00;;;;;14.21;48.85;102003.97;6251186;22;44836;-82
2022/03/22 03:32:33;;;;;;;;;15.67;13.67;;;;;14.14;48.78;102004.75;6250907;22;47008;-83
2022/03/22 03:34:59;;;;;;;;;21.00;20.33;;;;;14.07;48.88;102013.50;6279956;22;45389;-82
2022/03/22 03:37:25;;;;;;;;;24.00;22.33;;;;;13.98;49.08;101998.19;6281571;22;45445;-82
2022/03/22 03:39:51;;;;;;;;;18.67;18.67;;;;;13.97;48.89;101996.38;6283262;22;45446;-81
2022/03/22 03:42:16;;;;;;;;;22.67;21.00;;;;;13.98;48.84;102003.53;6280741;22;45917;-81
2022/03/22 03:47:28;;;;;;;;;23.33;23.33;;;;;13.90;48.91;102002.47;6281767;22;45722;-82
2022/03/22 03:49:54;;;;;;;;;22.67;20.33;;;;;13.88;48.63;101997.09;6282514;22;45386;-81
2022/03/22 03:52:30;;;;;;;;;22.67;19.00;;;;;13.95;48.72;102001.69;6280401;22;45364;-84
2022/03/22 03:54:58;;;;;;;;;23.33;21.67;;;;;13.91;48.89;102001.59;6252932;22;45462;-81
2022/03/22 03:57:24;;;;;;;;;19.00;17.67;;;;;13.83;48.89;102008.56;6254408;22;45338;-81
2022/03/22 03:59:50;;;;;;;;;19.67;19.67;;;;;13.79;49.13;102005.84;6253998;22;45401;-82
2022/03/22 04:02:17;;;;;;;;;22.33;22.00;;;;;13.78;48.83;102012.03;6253503;22;47064;-82
2022/03/22 04:04:44;;;;;;;;;19.67;18.00;;;;;13.76;48.94;102015.56;6253861;22;45604;-82
2022/03/22 04:07:12;;;;;;;;;28.67;24.67;;;;;13.79;49.10;102016.53;6255322;22;45440;-82
2022/03/22 04:09:39;;;;;;;;;26.00;23.00;;;;;13.72;48.97;102013.69;6254284;22;45349;-82
2022/03/22 04:12:05;;;;;;;;;22.00;20.33;;;;;13.70;48.77;102018.09;6253960;22;47227;-82
2022/03/22 04:14:31;;;;;;;;;28.00;26.00;;;;;13.63;48.95;102014.38;6253411;22;45706;-82
2022/03/22 04:16:57;;;;;;;;;25.00;22.67;;;;;13.58;49.08;102013.38;6281530;22;45594;-82
2022/03/22 04:19:26;;;;;;;;;24.67;21.33;;;;;13.71;49.26;102026.13;6280104;22;45392;-82
2022/03/22 04:21:52;;;;;;;;;25.00;20.67;;;;;13.55;49.11;102014.22;6252878;22;46827;-82
2022/03/22 04:24:18;;;;;;;;;20.67;18.33;;;;;13.51;49.37;102014.09;6248866;22;45364;-82
2022/03/22 04:26:45;;;;;;;;;21.33;21.33;;;;;13.60;49.09;102027.69;6252000;22;45444;-81
2022/03/22 04:34:42;;;;;;;;;29.33;23.33;;;;;13.46;49.25;102021.13;6282269;22;45455;-82
2022/03/22 04:37:12;;;;;;;;;24.00;22.33;;;;;13.45;49.49;102016.63;6280739;22;45344;-82
2022/03/22 04:39:39;;;;;;;;;23.00;21.00;;;;;13.40;49.70;102014.75;6250469;22;45387;-82
2022/03/22 04:42:04;;;;;;;;;26.33;25.67;;;;;13.40;49.36;102020.09;6249135;22;47821;-82
2022/03/22 04:44:30;;;;;;;;;27.00;25.33;;;;;13.42;49.45;102021.94;6251131;22;45397;-82
2022/03/22 04:46:57;;;;;;;;;22.33;22.33;;;;;13.44;49.47;102030.88;6279552;22;45399;-82
2022/03/22 04:49:24;;;;;;;;;22.67;22.67;;;;;13.39;49.55;102033.41;6251441;22;45446;-82
2022/03/22 04:57:18;;;;;;;;;23.33;21.00;;;;;13.24;49.96;102036.59;6278861;22;45720;-82
2022/03/22 04:59:43;;;;;;;;;21.33;21.00;;;;;13.21;49.89;102037.44;6279126;22;45726;-82
2022/03/22 05:02:12;;;;;;;;;24.67;22.67;;;;;13.31;49.93;102049.31;6280084;22;46430;-82
2022/03/22 05:04:37;;;;;;;;;24.33;23.00;;;;;13.14;50.12;102043.50;6255740;22;45434;-82
2022/03/22 05:07:03;;;;;;;;;27.00;21.67;;;;;13.13;50.10;102051.50;6254382;22;44803;-82
2022/03/22 05:09:29;;;;;;;;;21.67;21.67;;;;;13.12;50.18;102050.56;6283393;22;45322;-82
2022/03/22 05:11:56;;;;;;;;;23.67;23.67;;;;;13.15;50.20;102050.66;6255230;22;47151;-81
2022/03/22 05:14:22;;;;;;;;;21.33;21.33;;;;;13.05;50.47;102042.34;6283560;22;45310;-82
2022/03/22 05:16:48;;;;;;;;;21.00;19.00;;;;;13.04;50.31;102054.81;6283968;22;45293;-83
2022/03/22 05:19:13;;;;;;;;;27.33;24.00;;;;;13.04;50.26;102062.84;6284837;22;45297;-83
2022/03/22 05:21:40;;;;;;;;;26.00;22.50;;;;;13.06;50.53;102065.56;6283266;22;45449;-83
2022/03/22 05:24:06;;;;;;;;;23.33;19.00;;;;;13.04;50.42;102056.59;6282804;22;45450;-83
2022/03/22 05:26:32;;;;;;;;;21.00;21.00;;;;;12.99;50.40;102057.38;6256304;22;45834;-83
2022/03/22 05:28:58;;;;;;;;;27.33;23.00;;;;;12.95;50.55;102052.84;6284761;22;45387;-83
2022/03/22 05:31:25;;;;;;;;;22.67;22.33;;;;;13.10;50.54;102073.66;6255016;22;47704;-83
2022/03/22 05:33:52;;;;;;;;;25.33;23.00;;;;;12.96;50.69;102075.97;6254733;22;45400;-83
2022/03/22 05:36:17;;;;;;;;;26.00;22.67;;;;;12.93;50.76;102075.03;6282372;22;45646;-83
2022/03/22 05:38:43;;;;;;;;;15.67;14.67;;;;;12.92;50.73;102076.78;6242199;22;45556;-83
2022/03/22 05:41:08;;;;;;;;;24.00;24.00;;;;;12.91;50.60;102082.09;6286858;22;45552;-83
2022/03/22 05:47:43;;;;;;;;;31.33;27.33;;;;;13.02;50.53;102081.47;6286240;22;45351;-81
2022/03/22 05:50:09;;;;;;;;;22.67;22.00;;;;;12.83;50.83;102087.22;6285635;22;45500;-81
2022/03/22 05:52:47;;;;;;;;;26.67;24.67;;;;;12.79;51.30;102086.25;6281576;22;45513;-82
2022/03/22 05:55:13;;;;;;;;;27.33;25.00;;;;;12.82;50.85;102093.41;6253053;22;45543;-82
2022/03/22 05:57:39;;;;;;;;;25.67;23.33;;;;;12.74;51.21;102094.97;6280534;22;45341;-81
2022/03/22 06:00:07;;;;;;;;;23.67;23.67;;;;;12.75;51.14;102092.34;6252622;22;45584;-82
2022/03/22 06:02:37;;;;;;;;;23.00;20.67;;;;;12.81;51.38;102096.97;6252952;22;46571;-82
2022/03/22 06:05:04;;;;;;;;;28.33;26.33;;;;;12.71;51.48;102101.16;6253829;22;46125;-81
2022/03/22 06:07:29;;;;;;;;;26.67;24.33;;;;;12.65;51.22;102098.31;6283282;22;45418;-82
2022/03/22 06:09:58;;;;;;;;;27.67;26.67;;;;;12.76;51.53;102087.91;6286416;22;45372;-83
2022/03/22 06:12:24;;;;;;;;;28.33;24.00;;;;;12.59;51.56;102091.03;6259514;22;46847;-82
2022/03/22 06:15:14;;;;;;;;;26.33;22.00;;;;;12.66;51.51;102107.22;6258837;22;45784;-81
2022/03/22 06:17:35;;;;;;;;;32.00;27.33;;;;;12.65;51.02;102102.75;6286443;22;45389;-82
2022/03/22 06:20:01;;;;;;;;;29.00;22.00;;;;;12.67;51.50;102111.72;6284145;22;45593;-82
2022/03/22 06:22:27;;;;;;;;;29.67;25.33;;;;;12.65;51.62;102109.00;6256961;22;47338;-82
2022/03/22 06:24:52;;;;;;;;;27.33;26.67;;;;;12.68;51.15;102108.16;6280387;22;45468;-82
2022/03/22 06:27:19;;;;;;;;;29.67;27.00;;;;;12.74;51.33;102111.88;6279795;22;45666;-83
2022/03/22 06:29:44;;;;;;;;;29.33;27.33;;;;;12.71;51.30;102110.94;6256062;22;45531;-83
2022/03/22 06:32:11;;;;;;;;;25.00;22.33;;;;;12.73;51.54;102109.22;6253851;22;46114;-83
2022/03/22 06:34:37;;;;;;;;;27.67;26.67;;;;;12.75;51.15;102123.50;6256660;22;45711;-83
2022/03/22 06:37:03;;;;;;;;;29.33;26.67;;;;;12.81;51.13;102121.00;6285511;22;45379;-82
2022/03/22 06:39:29;;;;;;;;;30.00;24.67;;;;;12.82;50.85;102122.78;6285078;22;45375;-82
2022/03/22 06:41:55;;;;;;;;;24.00;23.00;;;;;12.83;51.00;102119.28;6257646;22;46793;-83
2022/03/22 06:44:20;;;;;;;;;28.67;25.67;;;;;12.87;50.93;102131.84;6256648;22;45416;-83
2022/03/22 06:46:46;;;;;;;;;28.33;28.33;;;;;12.94;50.84;102133.78;6285398;22;45385;-82
2022/03/22 06:49:12;;;;;;;;;26.67;26.00;;;;;12.89;50.79;102127.44;6257837;22;45323;-83
2022/03/22 06:51:38;;;;;;;;;24.33;22.00;;;;;12.90;50.46;102131.91;6285599;22;45626;-83
2022/03/22 06:54:05;;;;;;;;;26.67;25.00;;;;;12.98;50.61;102119.66;6258327;22;46230;-82
2022/03/22 06:56:31;;;;;;;;;28.33;27.00;;;;;12.96;50.53;102129.38;6287712;22;45354;-82
2022/03/22 06:58:58;;;;;;;;;28.67;27.33;;;;;13.04;50.37;102131.38;6287520;22;45787;-82
2022/03/22 07:01:23;;;;;;;;;34.00;27.67;;;;;13.01;50.27;102143.78;6258511;22;47011;-83
2022/03/22 07:03:49;;;;;;;;;31.67;27.67;;;;;13.11;50.10;102136.00;6259596;22;45374;-83
2022/03/22 07:06:14;;;;;;;;;33.00;30.00;;;;;13.13;49.84;102140.53;6258970;22;45342;-82
2022/03/22 07:08:40;;;;;;;;;32.67;30.33;;;;;13.16;49.82;102137.03;6258616;22;45651;-83
2022/03/22 07:13:49;;;;;;;;;27.67;27.67;;;;;13.23;49.61;102141.69;6285301;22;45729;-83
2022/03/22 07:16:15;;;;;;;;;30.33;28.33;;;;;13.28;49.18;102153.38;6287149;22;45673;-82
2022/03/22 07:18:40;;;;;;;;;32.00;28.33;;;;;13.27;49.05;102137.28;6287464;22;45515;-82
2022/03/22 07:21:06;;;;;;;;;29.00;26.00;;;;;13.27;49.12;102134.63;6258088;22;46846;-82
2022/03/22 07:23:35;;;;;;;;;26.33;23.33;;;;;13.30;48.90;102130.31;6256596;22;45383;-82
2022/03/22 07:26:01;;;;;;;;;31.33;29.67;;;;;13.40;48.68;102151.03;6257580;22;45306;-81
2022/03/22 07:31:48;;;;;;;;;25.67;22.67;;;;;13.55;48.20;102146.94;6287935;22;45633;-83
2022/03/22 07:34:15;;;;;;;;;19.33;15.33;;;;;13.72;48.33;102142.03;6258959;22;45256;-83
2022/03/22 07:36:46;;;;;;;;;35.67;34.00;;;;;13.88;48.14;102151.31;6286457;22;45800;-82
2022/03/22 07:39:14;;;;;;;;;30.00;26.67;;;;;13.95;48.25;102161.25;6260658;22;45352;-82
2022/03/22 07:41:44;;;;;;;;;35.67;31.00;;;;;14.10;47.65;102148.25;6292936;22;45547;-83
2022/03/22 07:44:12;;;;;;;;;33.67;29.33;;;;;14.11;47.56;102150.03;6286114;22;45359;-82
2022/03/22 07:46:42;;;;;;;;;38.67;34.33;;;;;14.15;46.99;102151.91;6257062;22;45287;-82
2022/03/22 07:54:41;;;;;;;;;29.33;28.67;;;;;14.39;46.80;102162.22;6288063;22;45351;-82
2022/03/22 07:57:10;;;;;;;;;34.67;32.00;;;;;14.40;46.29;102164.06;6256167;22;45271;-82
2022/03/22 07:59:35;;;;;;;;;32.33;29.00;;;;;14.38;46.49;102148.81;6256273;22;45585;-82
2022/03/22 08:02:03;;;;;;;;;31.67;27.33;;;;;14.47;46.30;102143.66;6257369;22;46717;-82
2022/03/22 08:04:37;;;;;;;;;34.67;33.00;;;;;14.68;46.19;102158.38;6285330;22;45423;-83
2022/03/22 08:07:07;;;;;;;;;32.00;30.00;;;;;14.52;45.72;102147.34;6285697;22;44882;-82
2022/03/22 08:09:32;;;;;;;;;32.33;30.33;;;;;14.55;45.92;102146.50;6257087;22;44803;-82
2022/03/22 08:11:58;;;;;;;;;30.67;28.67;;;;;14.64;45.80;102160.09;6284047;22;46343;-81
2022/03/22 08:14:24;;;;;;;;;30.00;23.67;;;;;14.67;45.21;102159.28;6258041;22;45606;-82
2022/03/22 08:16:50;;;;;;;;;32.67;27.33;;;;;14.84;45.27;102171.19;6258789;22;45643;-82
2022/03/22 08:19:19;;;;;;;;;28.33;26.00;;;;;14.75;45.04;102171.03;6287803;22;45586;-82
2022/03/22 08:21:46;;;;;;;;;25.33;25.33;;;;;14.89;44.90;102177.56;6260128;22;47092;-80
2022/03/22 08:24:14;;;;;;;;;36.33;31.33;;;;;15.05;44.87;102175.16;6284865;22;44774;-82
2022/03/22 08:26:47;;;;;;;;;33.67;32.33;;;;;14.98;44.68;102177.72;6284477;22;45567;-82
2022/03/22 08:29:13;;;;;;;;;32.00;30.33;;;;;15.13;44.75;102166.41;6285625;22;45344;-82
2022/03/22 08:31:39;;;;;;;;;31.33;27.00;;;;;15.10;44.44;102160.06;6286993;22;45348;-83
2022/03/22 08:34:04;;;;;;;;;34.67;30.33;;;;;15.17;44.26;102167.38;6259111;22;45419;-82
2022/03/22 08:36:30;;;;;;;;;35.00;33.33;;;;;15.22;44.33;102164.75;6258932;22;45358;-82
2022/03/22 08:38:57;;;;;;;;;37.00;33.67;;;;;15.27;43.85;102166.66;6259762;22;45855;-82
2022/03/22 08:41:23;;;;;;;;;37.00;33.67;;;;;15.34;43.66;102160.50;6258423;22;47004;-82
2022/03/22 08:43:48;;;;;;;;;39.33;34.33;;;;;15.50;44.09;102169.72;6260877;22;45749;-82
2022/03/22 08:46:14;;;;;;;;;34.67;32.67;;;;;15.52;42.87;102153.66;6288428;22;45426;-82
2022/03/22 08:48:40;;;;;;;;;34.67;31.33;;;;;15.66;42.37;102169.97;6260438;22;45434;-81
2022/03/22 08:51:05;;;;;;;;;28.33;28.00;;;;;15.68;41.76;102163.75;6285474;22;45409;-82
2022/03/22 08:53:32;;;;;;;;;38.33;33.67;;;;;15.76;41.15;102162.13;6259523;22;45326;-82
2022/03/22 08:56:02;;;;;;;;;39.33;34.00;;;;;15.62;40.17;102150.25;6260522;22;45271;-82
2022/03/22 08:58:28;;;;;;;;;32.00;30.33;;;;;15.77;39.48;102172.00;6259248;22;44977;-83
2022/03/22 09:00:56;;;;;;;;;30.67;29.67;;;;;15.62;38.35;102141.31;6232581;22;46766;-84
2022/03/22 09:03:26;;;;;;;;;31.33;29.00;;;;;15.69;37.59;102144.09;6259513;22;45396;-83
2022/03/22 09:06:07;;;;;;;;;25.00;25.00;;;;;15.85;36.53;102161.34;6288673;22;45760;-82
2022/03/22 09:08:34;;;;;;;;;28.33;26.67;;;;;15.72;34.34;102137.88;6290674;22;45534;-83
2022/03/22 09:10:59;;;;;;;;;25.00;22.67;;;;;15.83;34.64;102140.75;6263138;22;47771;-83
2022/03/22 09:13:37;;;;;;;;;22.00;19.00;;;;;16.20;34.71;102156.50;6261834;22;45278;-84
2022/03/22 09:16:14;;;;;;;;;22.67;21.67;;;;;16.12;34.50;102125.09;6239382;22;45524;-84
2022/03/22 09:18:43;;;;;;;;;28.00;26.67;;;;;16.20;32.75;102143.09;6261945;22;45446;-81
2022/03/22 09:21:10;;;;;;;;;30.67;25.67;;;;;16.17;34.02;102120.66;6285808;22;46077;-84
2022/03/22 09:23:40;;;;;;;;;26.67;21.67;;;;;16.50;33.17;102151.50;6258170;22;44746;-82
2022/03/22 09:26:07;;;;;;;;;19.00;19.00;;;;;16.53;33.89;102127.38;6252441;22;45651;-83
2022/03/22 09:28:33;;;;;;;;;21.33;19.67;;;;;16.90;31.39;102163.63;6228627;22;45352;-81
2022/03/22 09:31:08;;;;;;;;;18.33;14.67;;;;;16.83;28.27;102145.66;6254325;22;45302;-83
2022/03/22 09:33:34;;;;;;;;;19.00;18.33;;;;;16.71;26.23;102126.69;6227739;22;45408;-82
2022/03/22 09:36:01;;;;;;;;;11.67;11.33;;;;;16.82;26.53;102142.94;6255649;22;45463;-83
2022/03/22 09:38:31;;;;;;;;;17.33;15.67;;;;;16.93;26.16;102157.41;6254957;22;45377;-81
2022/03/22 09:40:59;;;;;;;;;15.67;15.67;;;;;17.07;26.47;102154.88;6227259;22;46905;-82
2022/03/22 09:43:27;;;;;;;;;15.33;15.33;;;;;17.15;28.53;102169.28;6227374;22;45201;-82
2022/03/22 09:46:01;;;;;;;;;14.00;14.00;;;;;17.35;28.69;102172.13;6228884;22;45370;-83
2022/03/22 09:48:31;;;;;;;;;19.67;18.67;;;;;17.37;24.62;102171.28;6229973;22;45453;-82
2022/03/22 09:53:42;;;;;;;;;17.67;17.67;;;;;17.32;26.64;102161.34;6255056;22;45445;-82
2022/03/22 09:56:12;;;;;;;;;16.67;15.00;;;;;17.40;27.14;102144.38;6255721;22;45326;-83
2022/03/22 09:58:41;;;;;;;;;19.67;15.33;;;;;17.28;28.20;102128.16;6258629;22;45480;-83
2022/03/22 10:01:07;;;;;;;;;17.67;15.67;;;;;17.61;28.21;102153.50;6259816;22;45587;-83
2022/03/22 10:03:32;;;;;;;;;14.00;14.00;;;;;17.65;25.29;102158.03;6229302;22;45408;-83
2022/03/22 10:06:02;;;;;;;;;19.00;17.00;;;;;17.63;25.96;102142.78;6259034;22;45307;-85
2022/03/22 10:08:35;;;;;;;;;20.67;16.67;;;;;17.46;25.69;102134.59;6230828;22;45490;-83
2022/03/22 10:11:43;;;;;;;;;20.67;17.67;;;;;17.69;24.17;102145.50;6231122;22;46164;-85
2022/03/22 10:14:10;;;;;;;;;22.00;18.33;;;;;17.48;24.28;102154.31;6231845;22;45116;-84
2022/03/22 10:17:11;;;;;;;;;18.00;14.67;;;;;17.64;24.84;102158.94;6231193;22;45763;-85
2022/03/22 10:19:42;;;;;;;;;15.33;12.33;;;;;17.44;24.84;102104.97;6231444;22;45281;-84
2022/03/22 10:22:11;;;;;;;;;15.00;15.00;;;;;17.49;23.93;102138.22;6230654;22;45415;-84
2022/03/22 10:24:50;;;;;;;;;19.33;18.67;;;;;17.66;25.27;102127.56;6230327;22;45861;-83
2022/03/22 10:27:28;;;;;;;;;17.67;17.33;;;;;17.79;23.97;102148.28;6257100;22;45263;-83
2022/03/22 10:30:02;;;;;;;;;17.33;17.33;;;;;17.75;24.40;102148.25;6255531;22;45330;-84
2022/03/22 10:32:44;;;;;;;;;16.00;15.00;;;;;17.61;24.38;102129.31;6255960;22;45391;-83
2022/03/22 10:35:22;;;;;;;;;13.67;12.33;;;;;17.72;25.55;102146.44;6254666;22;45440;-84
2022/03/22 10:37:56;;;;;;;;;17.67;15.67;;;;;17.70;25.50;102137.44;6253120;22;45517;-85
2022/03/22 10:40:43;;;;;;;;;19.67;15.67;;;;;17.78;27.00;102108.81;6260588;22;45332;-85
2022/03/22 10:43:27;;;;;;;;;15.33;15.00;;;;;18.04;26.43;102128.69;6258775;22;45365;-86
2022/03/22 10:46:00;;;;;;;;;19.33;15.67;;;;;18.03;24.30;102141.28;6232413;22;45297;-83
2022/03/22 10:48:42;;;;;;;;;21.00;15.67;;;;;17.84;26.62;102104.41;6232546;22;45389;-84
2022/03/22 10:51:33;;;;;;;;;21.00;18.67;;;;;18.29;26.11;102144.09;6260499;22;45424;-84
2022/03/22 10:57:42;;;;;;;;;17.00;15.67;;;;;18.24;22.52;102115.34;6228527;22;45405;-83
2022/03/22 11:00:16;;;;;;;;;18.00;18.00;;;;;18.23;22.01;102122.53;6204128;22;45410;-83
2022/03/22 11:03:14;;;;;;;;;;;;;;;;;;;;;
2022/03/22 11:05:41;;;;;;;;;21.67;21.67;;;;;18.23;23.84;102100.09;6193925;23;74242;-84
2022/03/22 11:08:12;;;;;;;;;20.00;18.00;;;;;18.33;23.93;102094.75;6191895;23;45604;-84
2022/03/22 11:10:39;;;;;;;;;18.33;18.33;;;;;18.23;24.59;102090.22;6166847;23;44929;-83
2022/03/22 11:13:11;;;;;;;;;22.67;22.00;;;;;18.55;23.79;102125.34;6166315;23;45399;-83
2022/03/22 11:15:40;;;;;;;;;18.00;17.33;;;;;18.31;25.14;102077.66;6190935;23;45608;-83
2022/03/22 11:18:10;;;;;;;;;18.00;18.00;;;;;18.41;23.34;102089.38;6166684;23;44958;-83
2022/03/22 11:20:50;;;;;;;;;19.33;15.33;;;;;18.25;22.76;102074.06;6189314;23;45386;-84
2022/03/22 11:23:19;;;;;;;;;17.67;17.00;;;;;18.44;22.41;102107.34;6147600;23;45407;-83
2022/03/22 11:25:48;;;;;;;;;17.00;17.00;;;;;18.49;23.33;102111.84;6153645;23;47056;-83
2022/03/22 11:31:40;;;;;;;;;16.33;15.33;;;;;18.51;22.28;102096.59;6165059;23;45014;-86
2022/03/22 11:34:12;;;;;;;;;19.33;19.00;;;;;18.52;22.65;102098.41;6143474;23;45659;-84
2022/03/22 11:36:50;;;;;;;;;22.33;18.67;;;;;18.38;22.56;102067.84;6186672;22;45651;-83
2022/03/22 11:46:19;;;;;;;;;21.00;17.33;;;;;18.46;22.15;102055.28;6138572;23;45421;-84
2022/03/22 11:48:53;;;;;;;;;19.33;18.33;;;;;18.76;22.19;102078.69;6134584;23;45905;-84
2022/03/22 11:51:49;;;;;;;;;22.67;21.33;;;;;18.66;23.13;102047.22;6159767;23;45401;-84
2022/03/22 11:54:16;;;;;;;;;19.00;19.00;;;;;18.79;22.54;102083.22;6194860;22;45426;-85
2022/03/22 11:57:07;;;;;;;;;24.33;24.00;;;;;18.88;22.03;102080.53;6255806;22;44756;-84
2022/03/22 11:59:41;;;;;;;;;19.67;18.33;;;;;18.69;23.45;102039.16;6226758;22;46639;-83
2022/03/22 12:02:15;;;;;;;;;21.67;19.00;;;;;18.79;24.22;102042.78;6200712;22;45367;-85
2022/03/22 12:05:05;;;;;;;;;19.00;17.00;;;;;19.14;22.46;102071.56;6227820;22;45412;-86
2022/03/22 12:07:35;;;;;;;;;19.33;18.33;;;;;18.92;22.01;102041.88;6230778;22;45399;-85
2022/03/22 12:13:44;;;;;;;;;24.00;21.33;;;;;18.92;22.66;102028.41;6253213;22;45549;-86
2022/03/22 12:16:21;;;;;;;;;;;;;;;;;;;;;